Time;durP1;ratioP1;P1;durP2;ratioP2;P2;SDS_P1;SDS_P2;PMS_P1;PMS_P2;Temp;Humidity;BMP_temperature;BMP_pressure;BME280_temperature;BME280_humidity;BME280_pressure;Samples;Min_cycle;Max_cycle;Signal;HPM_P1;HPM_P2
2021/05/24 00:00:59;;;;;;;;;;;;;;;20.18;46.42;99974.34;2214137;39;114571;-53
2021/05/24 00:02:30;;;;;;;;;;;;;;;20.15;46.54;99973.03;2203869;39;114788;-53
2021/05/24 00:04:02;;;;;;;;;;;;;;;20.16;46.82;99969.06;2212641;39;115570;-54
2021/05/24 00:05:35;;;;;;;;;;;;;;;20.15;46.57;99958.19;2214776;39;114903;-54
2021/05/24 00:07:09;;;;;;;;;;;;;;;20.15;46.67;99956.19;2211484;39;114422;-53
2021/05/24 00:08:41;;;;;;;;;;;;;;;20.13;46.90;99964.09;2216686;39;114875;-52
2021/05/24 00:10:16;;;;;;;;;;;;;;;20.14;46.70;99962.97;2211335;39;115274;-53
2021/05/24 00:11:51;;;;;;;;;;;;;;;20.13;46.56;99966.09;2212431;39;115453;-53
2021/05/24 00:13:23;;;;;;;;;;;;;;;20.11;46.58;99968.41;2211064;39;115168;-53
2021/05/24 00:14:55;;;;;;;;;;;;;;;20.13;46.45;99968.88;2204350;39;115748;-53
2021/05/24 00:16:27;;;;;;;;;;;;;;;20.12;46.75;99964.47;2206807;39;116452;-53
2021/05/24 00:17:59;;;;;;;;;;;;;;;20.11;46.60;99974.84;2213938;39;114549;-53
2021/05/24 00:19:30;;;;;;;;;;;;;;;20.10;46.77;99973.19;2215962;39;114563;-53
2021/05/24 00:21:03;;;;;;;;;;;;;;;20.11;46.90;99968.41;2203288;39;115634;-54
2021/05/24 00:22:35;;;;;;;;;;;;;;;20.09;46.68;99962.28;2205665;39;115547;-53
2021/05/24 00:24:07;;;;;;;;;;;;;;;20.09;46.61;99951.91;2213062;39;115521;-53
2021/05/24 00:25:38;;;;;;;;;;;;;;;20.08;46.88;99952.25;2211599;39;115856;-54
2021/05/24 00:27:11;;;;;;;;;;;;;;;20.09;46.63;99949.09;2203163;39;114707;-53
2021/05/24 00:28:43;;;;;;;;;;;;;;;20.09;47.15;99962.28;2200742;39;115620;-53
2021/05/24 00:30:16;;;;;;;;;;;;;;;20.06;47.00;99960.97;2210572;39;114542;-53
2021/05/24 00:31:47;;;;;;;;;;;;;;;20.06;46.77;99971.38;2215842;39;115878;-53
2021/05/24 00:33:19;;;;;;;;;;;;;;;20.05;47.19;99966.91;2215903;39;115951;-53
2021/05/24 00:34:51;;;;;;;;;;;;;;;20.04;46.58;99959.66;2204909;39;113907;-54
2021/05/24 00:36:23;;;;;;;;;;;;;;;20.03;46.80;99966.44;2208351;39;113971;-53
2021/05/24 00:37:54;;;;;;;;;;;;;;;20.03;46.91;99972.03;2215071;39;113764;-53
2021/05/24 00:39:26;;;;;;;;;;;;;;;20.03;46.74;99972.88;2209644;39;113966;-53
2021/05/24 00:40:58;;;;;;;;;;;;;;;20.03;46.69;99966.44;2213364;39;113964;-53
2021/05/24 00:42:29;;;;;;;;;;;;;;;19.99;46.91;99972.69;2211616;39;114271;-54
2021/05/24 00:44:01;;;;;;;;;;;;;;;20.01;46.89;99974.34;2212485;39;114330;-53
2021/05/24 00:45:33;;;;;;;;;;;;;;;19.99;46.76;99961.47;2216043;39;114039;-54
2021/05/24 00:47:05;;;;;;;;;;;;;;;19.99;46.75;99964.25;2209484;39;113854;-53
2021/05/24 00:48:37;;;;;;;;;;;;;;;19.98;46.91;99962.63;2207765;39;113904;-53
2021/05/24 00:50:09;;;;;;;;;;;;;;;19.97;47.10;99960.97;2207735;39;114011;-53
2021/05/24 00:51:41;;;;;;;;;;;;;;;19.98;47.22;99970.22;2203778;39;113940;-54
2021/05/24 00:53:13;;;;;;;;;;;;;;;19.98;47.04;99967.41;2209635;39;113665;-53
2021/05/24 00:54:45;;;;;;;;;;;;;;;19.97;47.00;99963.78;2216192;39;113946;-53
2021/05/24 00:56:16;;;;;;;;;;;;;;;19.98;47.20;99973.84;2213353;39;113801;-53
2021/05/24 00:57:49;;;;;;;;;;;;;;;19.97;47.08;99969.41;2212973;39;115017;-53
2021/05/24 00:59:21;;;;;;;;;;;;;;;19.93;47.31;99956.38;2217865;39;114830;-53
2021/05/24 01:00:52;;;;;;;;;;;;;;;19.95;47.29;99956.84;2210768;39;114826;-54
2021/05/24 01:02:24;;;;;;;;;;;;;;;19.94;47.18;99950.41;2215167;39;113851;-54
2021/05/24 01:03:58;;;;;;;;;;;;;;;19.94;47.08;99958.03;2207658;39;114954;-58
2021/05/24 01:05:29;;;;;;;;;;;;;;;19.92;46.86;99963.94;2211106;39;114841;-54
2021/05/24 01:07:02;;;;;;;;;;;;;;;19.92;46.85;99961.13;2213785;39;114912;-53
2021/05/24 01:08:34;;;;;;;;;;;;;;;19.92;47.07;99968.72;2200906;39;115071;-53
2021/05/24 01:10:06;;;;;;;;;;;;;;;19.92;47.14;99965.91;2202280;39;114589;-53
2021/05/24 01:11:38;;;;;;;;;;;;;;;19.93;46.69;99968.41;2209910;39;115497;-53
2021/05/24 01:13:12;;;;;;;;;;;;;;;19.92;47.14;99952.72;2212719;39;115024;-53
2021/05/24 01:14:44;;;;;;;;;;;;;;;19.89;46.89;99942.19;2205533;39;114388;-53
2021/05/24 01:16:15;;;;;;;;;;;;;;;19.91;46.72;99955.84;2213717;39;115515;-53
2021/05/24 01:17:47;;;;;;;;;;;;;;;19.90;47.07;99957.00;2211056;39;114691;-53
2021/05/24 01:19:20;;;;;;;;;;;;;;;19.87;46.96;99964.09;2215169;39;116029;-54
2021/05/24 01:20:52;;;;;;;;;;;;;;;19.86;47.21;99958.81;2213662;39;114987;-53
2021/05/24 01:22:24;;;;;;;;;;;;;;;19.88;46.71;99964.94;2202015;39;114620;-53
2021/05/24 01:23:56;;;;;;;;;;;;;;;19.85;46.92;99965.59;2205702;39;115544;-53
2021/05/24 01:25:28;;;;;;;;;;;;;;;19.87;46.99;99963.28;2215630;39;115602;-53
2021/05/24 01:27:00;;;;;;;;;;;;;;;19.84;46.99;99972.34;2217233;39;115414;-52
2021/05/24 01:28:32;;;;;;;;;;;;;;;19.87;46.87;99974.47;2216540;39;116144;-54
2021/05/24 01:30:04;;;;;;;;;;;;;;;19.85;46.86;99974.00;2214600;39;116239;-53
2021/05/24 01:31:36;;;;;;;;;;;;;;;19.86;46.98;99961.63;2201591;39;116074;-54
2021/05/24 01:33:09;;;;;;;;;;;;;;;19.84;47.15;99955.53;2206824;39;114645;-52
2021/05/24 01:34:42;;;;;;;;;;;;;;;19.83;47.16;99963.09;2214527;39;115429;-53
2021/05/24 01:36:14;;;;;;;;;;;;;;;19.82;46.82;99967.06;2209600;39;116115;-53
2021/05/24 01:37:45;;;;;;;;;;;;;;;19.82;46.92;99969.84;2206056;39;115534;-53
2021/05/24 01:39:19;;;;;;;;;;;;;;;19.82;46.90;99969.03;2205839;39;115454;-53
2021/05/24 01:40:51;;;;;;;;;;;;;;;19.82;46.86;99967.06;2215269;39;114140;-53
2021/05/24 01:42:23;;;;;;;;;;;;;;;19.81;47.11;99964.56;2209647;39;113972;-53
2021/05/24 01:43:54;;;;;;;;;;;;;;;19.81;46.89;99967.38;2215245;39;113802;-54
2021/05/24 01:45:27;;;;;;;;;;;;;;;19.80;47.05;99969.38;2216441;39;113753;-55
2021/05/24 01:46:58;;;;;;;;;;;;;;;19.78;47.13;99971.66;2217080;39;113808;-53
2021/05/24 01:48:31;;;;;;;;;;;;;;;19.80;46.85;99971.34;2210820;39;113830;-52
2021/05/24 01:50:03;;;;;;;;;;;;;;;19.79;46.76;99967.72;2204592;39;114405;-54
2021/05/24 01:51:35;;;;;;;;;;;;;;;19.78;47.04;99968.03;2212538;39;113889;-53
2021/05/24 01:53:07;;;;;;;;;;;;;;;19.80;47.07;99965.75;2210806;39;113692;-53
2021/05/24 01:54:38;;;;;;;;;;;;;;;19.77;47.21;99963.56;2210901;39;114109;-55
2021/05/24 01:56:10;;;;;;;;;;;;;;;19.77;47.05;99960.78;2215084;39;114450;-53
2021/05/24 01:57:42;;;;;;;;;;;;;;;19.77;46.76;99969.19;2215858;39;113851;-53
2021/05/24 01:59:13;;;;;;;;;;;;;;;19.77;46.92;99969.19;2207564;39;114042;-53
2021/05/24 02:00:45;;;;;;;;;;;;;;;19.76;46.85;99968.34;2207084;39;113864;-54
2021/05/24 02:02:17;;;;;;;;;;;;;;;19.75;46.70;99966.72;2211157;39;114123;-52
2021/05/24 02:03:49;;;;;;;;;;;;;;;19.74;46.94;99964.25;2214313;39;115003;-60
2021/05/24 02:05:21;;;;;;;;;;;;;;;19.75;47.15;99960.28;2217664;39;115397;-53
2021/05/24 02:06:53;;;;;;;;;;;;;;;19.73;47.11;99957.81;2210284;39;114839;-53
2021/05/24 02:08:24;;;;;;;;;;;;;;;19.71;47.06;99968.53;2213686;39;114012;-53
2021/05/24 02:09:56;;;;;;;;;;;;;;;19.72;46.97;99966.53;2210915;39;114925;-53
2021/05/24 02:11:29;;;;;;;;;;;;;;;19.72;47.26;99967.38;2211516;39;114312;-53
2021/05/24 02:13:01;;;;;;;;;;;;;;;19.71;46.82;99962.94;2216668;39;115151;-53
2021/05/24 02:14:32;;;;;;;;;;;;;;;19.72;47.03;99963.72;2207504;39;114198;-53
2021/05/24 02:16:04;;;;;;;;;;;;;;;19.70;46.96;99958.47;2215124;39;114641;-53
2021/05/24 02:17:36;;;;;;;;;;;;;;;19.69;47.26;99962.41;2213495;39;114631;-53
2021/05/24 02:19:09;;;;;;;;;;;;;;;19.69;47.10;99964.41;2205966;39;115345;-53
2021/05/24 02:20:40;;;;;;;;;;;;;;;19.71;47.22;99964.91;2205154;39;115577;-53
2021/05/24 02:22:12;;;;;;;;;;;;;;;19.71;47.25;99964.91;2214657;39;115120;-54
2021/05/24 02:23:43;;;;;;;;;;;;;;;19.71;47.43;99950.91;2214531;39;115673;-53
2021/05/24 02:25:15;;;;;;;;;;;;;;;19.70;47.20;99944.47;2201050;39;115116;-54
2021/05/24 02:26:48;;;;;;;;;;;;;;;19.70;47.29;99952.03;2208146;39;115483;-54
2021/05/24 02:28:19;;;;;;;;;;;;;;;19.68;47.33;99955.16;2198084;39;114702;-54
2021/05/24 02:29:51;;;;;;;;;;;;;;;19.69;47.27;99961.59;2208570;39;115546;-54
2021/05/24 02:31:23;;;;;;;;;;;;;;;19.68;47.37;99955.16;2212545;39;115444;-53
2021/05/24 02:32:55;;;;;;;;;;;;;;;19.67;47.37;99959.09;2212783;39;115633;-54
2021/05/24 02:34:26;;;;;;;;;;;;;;;19.69;47.49;99965.22;2211922;39;115637;-53
2021/05/24 02:35:59;;;;;;;;;;;;;;;19.68;47.60;99966.38;2213175;39;115744;-53
2021/05/24 02:37:31;;;;;;;;;;;;;;;19.69;47.50;99965.22;2213022;39;115519;-53
2021/05/24 02:39:05;;;;;;;;;;;;;;;19.66;47.53;99965.06;2207280;39;115223;-53
2021/05/24 02:40:37;;;;;;;;;;;;;;;19.67;47.45;99967.50;2210686;39;115776;-53
2021/05/24 02:42:08;;;;;;;;;;;;;;;19.69;47.18;99962.41;2205341;39;115616;-53
2021/05/24 02:43:42;;;;;;;;;;;;;;;19.65;47.47;99961.44;2209710;39;114674;-53
2021/05/24 02:45:16;;;;;;;;;;;;;;;19.65;47.73;99958.63;2183968;39;116780;-54
2021/05/24 02:46:48;;;;;;;;;;;;;;;19.65;47.82;99969.00;2187483;39;115455;-54
2021/05/24 02:48:19;;;;;;;;;;;;;;;19.62;47.55;99967.69;2193441;39;114251;-54
2021/05/24 02:49:51;;;;;;;;;;;;;;;19.63;47.81;99971.28;2194936;39;113954;-53
2021/05/24 02:51:23;;;;;;;;;;;;;;;19.60;47.60;99964.38;2199382;39;114688;-53
2021/05/24 02:52:54;;;;;;;;;;;;;;;19.60;47.75;99975.59;2206177;39;114120;-53
2021/05/24 02:54:26;;;;;;;;;;;;;;;19.61;47.55;99968.84;2203407;39;114253;-53
2021/05/24 02:55:58;;;;;;;;;;;;;;;19.58;47.98;99975.06;2210372;39;113933;-53
2021/05/24 02:57:29;;;;;;;;;;;;;;;19.59;48.08;99973.09;2212882;39;114138;-53
2021/05/24 02:59:02;;;;;;;;;;;;;;;19.57;47.84;99967.00;2205516;39;113980;-52
2021/05/24 03:00:34;;;;;;;;;;;;;;;19.59;47.73;99973.09;2211595;39;113835;-54
2021/05/24 03:02:06;;;;;;;;;;;;;;;19.59;47.72;99964.69;2200975;39;114229;-54
2021/05/24 03:03:40;;;;;;;;;;;;;;;19.57;48.08;99959.44;2198643;39;117758;-53
2021/05/24 03:05:13;;;;;;;;;;;;;;;19.60;47.24;99966.34;2194453;39;114031;-53
2021/05/24 03:06:45;;;;;;;;;;;;;;;19.56;47.34;99969.00;2217699;39;113642;-54
2021/05/24 03:08:17;;;;;;;;;;;;;;;19.57;47.61;99965.03;2211960;39;114858;-53
2021/05/24 03:09:49;;;;;;;;;;;;;;;19.57;47.61;99967.84;2205114;39;114733;-61
2021/05/24 03:11:22;;;;;;;;;;;;;;;19.57;47.59;99967.84;2213612;39;114904;-54
2021/05/24 03:12:55;;;;;;;;;;;;;;;19.56;47.54;99962.56;2204019;39;113872;-52
2021/05/24 03:14:27;;;;;;;;;;;;;;;19.57;47.41;99969.81;2209116;39;114906;-53
2021/05/24 03:15:58;;;;;;;;;;;;;;;19.56;47.48;99968.16;2214690;39;115570;-53
2021/05/24 03:17:30;;;;;;;;;;;;;;;19.54;47.41;99971.28;2214502;39;113982;-53
2021/05/24 03:19:02;;;;;;;;;;;;;;;19.53;47.31;99969.66;2206396;39;115097;-53
2021/05/24 03:20:34;;;;;;;;;;;;;;;19.52;47.27;99976.41;2214764;39;114800;-54
2021/05/24 03:22:06;;;;;;;;;;;;;;;19.51;47.41;99977.53;2215471;39;114774;-53
2021/05/24 03:23:38;;;;;;;;;;;;;;;19.48;47.70;99970.63;2203703;39;115596;-53
2021/05/24 03:25:10;;;;;;;;;;;;;;;19.49;47.33;99971.44;2210406;39;115150;-53
2021/05/24 03:26:42;;;;;;;;;;;;;;;19.48;47.49;99967.81;2206569;39;113998;-53
2021/05/24 03:28:14;;;;;;;;;;;;;;;19.47;47.48;99963.38;2216624;39;114849;-52
2021/05/24 03:29:45;;;;;;;;;;;;;;;19.47;47.67;99968.97;2213007;39;115667;-53
2021/05/24 03:31:17;;;;;;;;;;;;;;;19.48;47.38;99965.03;2213229;39;116197;-53
2021/05/24 03:32:49;;;;;;;;;;;;;;;19.47;47.79;99959.75;2211523;39;115486;-54
2021/05/24 03:34:20;;;;;;;;;;;;;;;19.49;47.36;99965.81;2211796;39;114676;-53
2021/05/24 03:35:53;;;;;;;;;;;;;;;19.47;47.30;99968.97;2205699;39;115884;-54
2021/05/24 03:37:24;;;;;;;;;;;;;;;19.46;47.37;99975.72;2213503;39;115545;-53
2021/05/24 03:38:56;;;;;;;;;;;;;;;19.45;47.55;99981.63;2212634;39;115673;-52
2021/05/24 03:40:28;;;;;;;;;;;;;;;19.46;47.41;99983.28;2216967;39;114796;-53
2021/05/24 03:41:59;;;;;;;;;;;;;;;19.45;47.29;99982.47;2209671;39;114690;-54
2021/05/24 03:43:32;;;;;;;;;;;;;;;19.44;47.44;99994.81;2215068;39;115389;-53
2021/05/24 03:45:05;;;;;;;;;;;;;;;19.43;47.28;99989.53;2209928;39;116652;-56
2021/05/24 03:46:37;;;;;;;;;;;;;;;19.43;47.37;99990.38;2213021;39;115602;-53
2021/05/24 03:48:09;;;;;;;;;;;;;;;19.42;47.52;99997.09;2213231;39;115721;-54
2021/05/24 03:51:22;;;;;;;;;;;;;;;19.42;47.42;99999.91;2215867;39;113983;-53
2021/05/24 03:52:54;;;;;;;;;;;;;;;19.41;47.35;100003.84;2214012;39;113628;-53
2021/05/24 03:54:25;;;;;;;;;;;;;;;19.39;47.46;100003.34;2209813;39;114561;-53
2021/05/24 03:55:57;;;;;;;;;;;;;;;19.40;47.39;100001.34;2210811;39;113997;-54
2021/05/24 03:57:29;;;;;;;;;;;;;;;19.38;47.44;100004.50;2206942;39;113743;-53
2021/05/24 03:59:02;;;;;;;;;;;;;;;19.39;47.39;100003.34;2207327;39;113814;-54
2021/05/24 04:00:34;;;;;;;;;;;;;;;19.36;47.56;99998.38;2212777;39;113638;-53
2021/05/24 04:02:07;;;;;;;;;;;;;;;19.38;47.72;100000.88;2208484;39;113858;-53
2021/05/24 04:03:38;;;;;;;;;;;;;;;19.37;47.42;100002.84;2201560;39;114161;-53
2021/05/24 04:06:56;;;;;;;;;;;;;;;19.37;47.47;99999.22;2207952;39;113906;-53
2021/05/24 04:08:34;;;;;;;;;;;;;;;19.36;47.28;100003.97;2213725;39;113797;-55
2021/05/24 04:10:06;;;;;;;;;;;;;;;19.35;47.47;99995.91;2216954;39;113764;-53
2021/05/24 04:11:38;;;;;;;;;;;;;;;19.33;47.70;100001.00;2209568;39;114027;-53
2021/05/24 04:13:09;;;;;;;;;;;;;;;19.30;47.61;100001.66;2216886;39;114087;-54
2021/05/24 04:14:42;;;;;;;;;;;;;;;19.32;47.84;99999.34;2215439;39;114879;-53
2021/05/24 04:16:14;;;;;;;;;;;;;;;19.30;47.71;100002.50;2215001;39;115419;-54
2021/05/24 04:17:47;;;;;;;;;;;;;;;19.31;47.88;100003.28;2211944;39;115287;-53
2021/05/24 04:19:18;;;;;;;;;;;;;;;19.32;47.63;100005.78;2215804;39;114164;-52
2021/05/24 04:20:51;;;;;;;;;;;;;;;19.32;47.55;100004.94;2214435;39;114019;-54
2021/05/24 04:22:22;;;;;;;;;;;;;;;19.33;47.43;99999.03;2208924;39;114424;-53
2021/05/24 04:23:54;;;;;;;;;;;;;;;19.34;47.46;99999.88;2214260;39;114880;-53
2021/05/24 04:25:26;;;;;;;;;;;;;;;19.33;47.48;100010.25;2214368;39;115253;-52
2021/05/24 04:26:57;;;;;;;;;;;;;;;19.33;47.55;100006.59;2216927;39;114806;-53
2021/05/24 04:28:29;;;;;;;;;;;;;;;19.31;47.69;100011.69;2217180;39;114880;-53
2021/05/24 04:30:01;;;;;;;;;;;;;;;19.30;47.89;100008.09;2217598;39;115034;-54
2021/05/24 04:31:33;;;;;;;;;;;;;;;19.30;47.76;100005.28;2217247;39;114875;-54
2021/05/24 04:33:05;;;;;;;;;;;;;;;19.29;47.46;100008.41;2208773;39;114821;-54
2021/05/24 04:34:37;;;;;;;;;;;;;;;19.28;47.90;100004.78;2217098;39;114074;-54
2021/05/24 04:36:08;;;;;;;;;;;;;;;19.29;47.62;100011.22;2207700;39;115411;-53
2021/05/24 04:37:40;;;;;;;;;;;;;;;19.29;47.79;100014.84;2213174;39;114708;-53
2021/05/24 04:39:11;;;;;;;;;;;;;;;19.26;47.99;100004.25;2208950;39;115424;-53
2021/05/24 04:40:43;;;;;;;;;;;;;;;19.26;47.80;100009.06;2205586;39;114202;-53
2021/05/24 04:42:15;;;;;;;;;;;;;;;19.26;47.81;100009.88;2213938;39;115459;-54
2021/05/24 04:43:47;;;;;;;;;;;;;;;19.26;48.18;100009.06;2212951;39;115644;-54
2021/05/24 04:45:19;;;;;;;;;;;;;;;19.29;48.35;100009.25;2217206;39;114240;-53
2021/05/24 04:46:50;;;;;;;;;;;;;;;19.31;48.33;100008.91;2217548;39;115979;-53
2021/05/24 04:48:22;;;;;;;;;;;;;;;19.35;48.37;100007.13;2213607;39;116083;-53
2021/05/24 04:49:54;;;;;;;;;;;;;;;19.36;48.77;100011.56;2202359;39;116427;-53
2021/05/24 04:51:26;;;;;;;;;;;;;;;19.41;48.54;100017.00;2206445;39;114579;-52
2021/05/24 04:52:58;;;;;;;;;;;;;;;19.41;48.53;100011.41;2204052;39;115597;-53
2021/05/24 04:54:30;;;;;;;;;;;;;;;19.42;48.57;100013.91;2212120;39;114337;-53
2021/05/24 04:56:02;;;;;;;;;;;;;;;19.46;48.91;100008.50;2220079;39;115518;-54
2021/05/24 04:57:34;;;;;;;;;;;;;;;19.49;48.64;100014.28;2209960;39;113623;-53
2021/05/24 04:59:06;;;;;;;;;;;;;;;19.53;48.91;100015.28;2205257;39;113982;-54
2021/05/24 05:00:38;;;;;;;;;;;;;;;19.57;49.29;100012.69;2207383;39;114125;-53
2021/05/24 05:02:10;;;;;;;;;;;;;;;19.60;49.32;100017.63;2213187;39;114190;-53
2021/05/24 05:03:41;;;;;;;;;;;;;;;19.66;49.13;100010.72;2217186;39;113853;-54
2021/05/24 05:05:13;;;;;;;;;;;;;;;19.70;49.30;100011.72;2214838;39;113556;-52
2021/05/24 05:06:45;;;;;;;;;;;;;;;19.76;49.62;100015.22;2204321;39;113886;-53
2021/05/24 05:08:16;;;;;;;;;;;;;;;19.80;49.71;100014.22;2213285;39;114044;-53
2021/05/24 05:09:48;;;;;;;;;;;;;;;19.85;49.68;100014.03;2207399;39;113879;-54
2021/05/24 05:11:20;;;;;;;;;;;;;;;19.90;49.56;100015.88;2211427;39;114073;-53
2021/05/24 05:12:52;;;;;;;;;;;;;;;19.95;49.36;100016.53;2214704;39;113704;-52
2021/05/24 05:14:24;;;;;;;;;;;;;;;19.99;49.35;100011.94;2214978;39;113912;-52
2021/05/24 05:15:56;;;;;;;;;;;;;;;20.06;48.98;100014.25;2202380;39;113666;-54
2021/05/24 05:17:28;;;;;;;;;;;;;;;20.11;49.12;100016.09;2202639;39;113849;-53
2021/05/24 05:19:00;;;;;;;;;;;;;;;20.15;49.34;100012.28;2212703;39;114046;-53
2021/05/24 05:20:32;;;;;;;;;;;;;;;20.21;48.58;100012.97;2210312;39;115900;-53
2021/05/24 05:22:03;;;;;;;;;;;;;;;20.24;48.67;100010.31;2206428;39;114861;-54
2021/05/24 05:23:35;;;;;;;;;;;;;;;20.29;48.45;100003.72;2208289;39;114894;-53
2021/05/24 05:25:08;;;;;;;;;;;;;;;20.34;48.48;100012.84;2210653;39;114967;-53
2021/05/24 05:26:39;;;;;;;;;;;;;;;20.39;48.38;100006.22;2206694;39;115179;-53
2021/05/24 05:28:11;;;;;;;;;;;;;;;20.43;48.10;100001.59;2210047;39;115348;-53
2021/05/24 05:29:43;;;;;;;;;;;;;;;20.48;48.06;100009.88;2209966;39;114818;-52
2021/05/24 05:31:14;;;;;;;;;;;;;;;20.52;47.76;100005.22;2210313;39;115099;-54
2021/05/24 05:32:46;;;;;;;;;;;;;;;20.56;47.85;100002.59;2203690;39;114916;-53
2021/05/24 05:34:18;;;;;;;;;;;;;;;20.61;47.94;100003.25;2208737;39;114801;-53
2021/05/24 05:35:54;;;;;;;;;;;;;;;20.64;47.77;100002.56;2210346;39;115423;-54
2021/05/24 05:37:25;;;;;;;;;;;;;;;20.69;47.99;100001.56;2209478;39;114827;-53
2021/05/24 05:38:57;;;;;;;;;;;;;;;20.72;47.87;100001.72;2212410;39;114190;-53
2021/05/24 05:40:31;;;;;;;;;;;;;;;20.76;47.50;99999.06;2210711;39;116020;-53
2021/05/24 05:42:03;;;;;;;;;;;;;;;20.80;47.46;99998.06;2209574;39;115185;-53
2021/05/24 05:43:35;;;;;;;;;;;;;;;20.84;47.35;99999.09;2209755;39;115466;-52
2021/05/24 05:45:07;;;;;;;;;;;;;;;20.88;47.22;99993.63;2210549;39;115533;-53
2021/05/24 05:46:38;;;;;;;;;;;;;;;20.92;47.60;99999.38;2210764;39;118676;-54
2021/05/24 05:48:10;;;;;;;;;;;;;;;20.95;47.08;99999.53;2204009;39;115394;-53
2021/05/24 05:49:47;;;;;;;;;;;;;;;21.00;46.79;99998.53;2206637;39;115319;-53
2021/05/24 05:51:19;;;;;;;;;;;;;;;21.03;47.32;99998.66;2209378;39;115859;-54
2021/05/24 05:52:50;;;;;;;;;;;;;;;21.06;46.82;99998.03;2210707;39;114888;-53
2021/05/24 05:54:22;;;;;;;;;;;;;;;21.10;46.91;100003.78;2210580;39;115712;-53
2021/05/24 05:55:54;;;;;;;;;;;;;;;21.13;47.23;100006.78;2210803;39;116523;-52
2021/05/24 05:57:25;;;;;;;;;;;;;;;21.16;46.64;100005.31;2209181;39;115947;-53
2021/05/24 05:58:57;;;;;;;;;;;;;;;21.19;46.72;100010.22;2210513;39;115444;-54
2021/05/24 06:00:29;;;;;;;;;;;;;;;21.21;46.74;100003.09;2209652;39;115711;-53
2021/05/24 06:02:00;;;;;;;;;;;;;;;21.24;46.70;100010.88;2211132;39;116329;-54
2021/05/24 06:03:33;;;;;;;;;;;;;;;21.28;46.76;100016.66;2207944;39;113899;-53
2021/05/24 06:05:05;;;;;;;;;;;;;;;21.32;46.76;100012.00;2211000;39;113859;-54
2021/05/24 06:06:37;;;;;;;;;;;;;;;21.35;46.38;100018.94;2211136;39;114101;-53
2021/05/24 06:08:09;;;;;;;;;;;;;;;21.37;46.52;100014.63;2208127;39;114057;-54
2021/05/24 06:09:40;;;;;;;;;;;;;;;21.41;46.35;100014.78;2207970;39;113849;-53
2021/05/24 06:11:12;;;;;;;;;;;;;;;21.45;46.39;100012.94;2210060;39;113780;-54
2021/05/24 06:12:46;;;;;;;;;;;;;;;21.47;46.21;100014.25;2212415;39;114343;-53
2021/05/24 06:14:20;;;;;;;;;;;;;;;21.51;45.90;100005.97;2212148;39;113722;-53
2021/05/24 06:15:51;;;;;;;;;;;;;;;21.54;46.13;100014.53;2210504;39;114233;-53
2021/05/24 06:17:23;;;;;;;;;;;;;;;21.56;45.96;100015.03;2208158;39;114102;-53
2021/05/24 06:18:55;;;;;;;;;;;;;;;21.60;45.90;100016.00;2212473;39;114463;-53
2021/05/24 06:20:27;;;;;;;;;;;;;;;21.63;45.63;100020.13;2216631;39;113924;-52
2021/05/24 06:21:59;;;;;;;;;;;;;;;21.66;45.68;100014.66;2216003;39;113872;-54
2021/05/24 06:23:30;;;;;;;;;;;;;;;21.67;45.67;100019.09;2210379;39;114121;-53
2021/05/24 06:25:02;;;;;;;;;;;;;;;21.71;45.81;100010.84;2213000;39;115320;-54
2021/05/24 06:26:34;;;;;;;;;;;;;;;21.73;45.50;100019.75;2208111;39;114828;-54
2021/05/24 06:28:05;;;;;;;;;;;;;;;21.76;45.46;100019.06;2210656;39;114997;-53
2021/05/24 06:29:37;;;;;;;;;;;;;;;21.79;45.42;100023.19;2215143;39;114818;-53
2021/05/24 06:31:09;;;;;;;;;;;;;;;21.80;45.34;100024.84;2209792;39;115000;-54
2021/05/24 06:32:41;;;;;;;;;;;;;;;21.82;45.39;100022.50;2212813;39;114846;-53
2021/05/24 06:34:12;;;;;;;;;;;;;;;21.84;45.50;100032.28;2206885;39;113960;-54
2021/05/24 06:35:44;;;;;;;;;;;;;;;21.85;45.28;100011.41;2213316;39;115069;-54
2021/05/24 06:37:16;;;;;;;;;;;;;;;21.86;45.44;100020.66;2213194;39;114754;-53
2021/05/24 06:38:47;;;;;;;;;;;;;;;21.88;45.04;100009.91;2210202;39;115488;-53
2021/05/24 06:40:19;;;;;;;;;;;;;;;21.89;45.25;100008.75;2210133;39;113851;-53
2021/05/24 06:41:51;;;;;;;;;;;;;;;21.89;45.32;100020.81;2212794;39;115542;-53
2021/05/24 06:43:24;;;;;;;;;;;;;;;21.91;45.01;100017.66;2206696;39;114857;-54
2021/05/24 06:44:56;;;;;;;;;;;;;;;21.92;45.01;100005.25;2207526;39;114871;-53
2021/05/24 06:46:28;;;;;;;;;;;;;;;21.92;45.22;100011.69;2210479;39;114548;-53
2021/05/24 06:48:00;;;;;;;;;;;;;;;21.93;45.18;100026.63;2208515;39;116400;-53
2021/05/24 06:49:34;;;;;;;;;;;;;;;21.94;45.44;100020.63;2210763;39;115758;-53
2021/05/24 06:51:06;;;;;;;;;;;;;;;21.96;45.78;100014.69;2211521;39;114957;-54
2021/05/24 06:52:37;;;;;;;;;;;;;;;21.92;44.93;100027.75;2207234;39;115728;-53
2021/05/24 06:54:09;;;;;;;;;;;;;;;21.88;44.66;100021.16;2210588;39;116403;-54
2021/05/24 06:55:41;;;;;;;;;;;;;;;21.86;44.22;100009.41;2213521;39;116226;-53
2021/05/24 06:57:13;;;;;;;;;;;;;;;21.87;44.24;100006.28;2209729;39;115679;-53
2021/05/24 06:58:45;;;;;;;;;;;;;;;21.87;44.12;100011.06;2203961;39;115606;-53
2021/05/24 07:00:18;;;;;;;;;;;;;;;21.88;44.13;100018.34;2202043;39;115083;-53
2021/05/24 07:01:49;;;;;;;;;;;;;;;21.87;44.11;100025.13;2205505;39;115917;-53
2021/05/24 07:03:21;;;;;;;;;;;;;;;21.85;43.71;100021.84;2208283;39;115979;-53
2021/05/24 07:04:53;;;;;;;;;;;;;;;21.83;43.68;100018.53;2214748;39;115556;-53
2021/05/24 07:06:24;;;;;;;;;;;;;;;21.82;43.34;100017.72;2218871;39;115958;-53
2021/05/24 07:07:56;;;;;;;;;;;;;;;21.83;43.38;100025.00;2203749;39;114395;-53
2021/05/24 07:09:28;;;;;;;;;;;;;;;21.83;43.31;100022.19;2209997;39;113937;-54
2021/05/24 07:11:00;;;;;;;;;;;;;;;21.83;43.33;100033.44;2216698;39;113837;-56
2021/05/24 07:12:31;;;;;;;;;;;;;;;21.84;43.23;100032.28;2215404;39;113787;-53
2021/05/24 07:14:03;;;;;;;;;;;;;;;21.84;43.23;100031.44;2204062;39;114068;-53
2021/05/24 07:15:35;;;;;;;;;;;;;;;21.76;43.63;100027.50;2213184;39;114245;-52
2021/05/24 07:17:07;;;;;;;;;;;;;;;21.75;43.43;100017.44;2213699;39;113854;-53
2021/05/24 07:18:39;;;;;;;;;;;;;;;21.70;42.82;100024.06;2213926;39;113824;-53
2021/05/24 07:20:11;;;;;;;;;;;;;;;21.67;42.81;100026.72;2208110;39;113821;-53
2021/05/24 07:21:43;;;;;;;;;;;;;;;21.65;43.17;100026.25;2209685;39;113827;-53
2021/05/24 07:23:16;;;;;;;;;;;;;;;21.66;42.62;100025.91;2210188;39;114822;-54
2021/05/24 07:24:47;;;;;;;;;;;;;;;21.64;42.62;100022.59;2210839;39;114086;-52
2021/05/24 07:26:19;;;;;;;;;;;;;;;21.61;42.49;100019.66;2210735;39;113709;-53
2021/05/24 07:27:51;;;;;;;;;;;;;;;21.60;42.54;100009.56;2205524;39;113776;-55
2021/05/24 07:29:23;;;;;;;;;;;;;;;21.59;42.65;100010.72;2213282;39;113637;-53
2021/05/24 07:30:54;;;;;;;;;;;;;;;21.56;42.07;100009.44;2203682;39;115500;-53
2021/05/24 07:32:26;;;;;;;;;;;;;;;21.56;42.49;100011.41;2206893;39;114961;-54
2021/05/24 07:33:58;;;;;;;;;;;;;;;21.55;42.32;100009.75;2209067;39;114763;-53
2021/05/24 07:35:29;;;;;;;;;;;;;;;21.54;42.05;100016.53;2206255;39;114677;-54
2021/05/24 07:37:01;;;;;;;;;;;;;;;21.51;42.42;100023.66;2205400;39;114763;-54
2021/05/24 07:38:33;;;;;;;;;;;;;;;21.50;41.94;100015.56;2211679;39;114732;-53
2021/05/24 07:40:06;;;;;;;;;;;;;;;21.47;42.12;100005.84;2202816;39;114231;-53
2021/05/24 07:41:38;;;;;;;;;;;;;;;21.47;41.90;100010.63;2205936;39;115276;-53
2021/05/24 07:43:09;;;;;;;;;;;;;;;21.46;42.00;100015.41;2210869;39;115466;-53
2021/05/24 07:44:41;;;;;;;;;;;;;;;21.43;41.51;100010.47;2209242;39;115518;-52
2021/05/24 07:46:13;;;;;;;;;;;;;;;21.40;41.88;100002.69;2208880;39;114383;-53
2021/05/24 07:47:45;;;;;;;;;;;;;;;21.39;41.65;100003.06;2202604;39;115039;-54
2021/05/24 07:49:18;;;;;;;;;;;;;;;21.39;41.80;100003.88;2208354;39;115214;-53
2021/05/24 07:50:52;;;;;;;;;;;;;;;21.35;41.70;99997.28;2212786;39;114104;-52
2021/05/24 07:52:24;;;;;;;;;;;;;;;21.36;41.58;100006.53;2209037;39;115678;-54
2021/05/24 07:53:56;;;;;;;;;;;;;;;21.35;41.76;100002.88;2208999;39;115800;-53